createdAt,value
2022-10-03T00:00:25.241Z,10.30
2022-10-03T00:03:53.298Z,10.20
2022-10-03T00:07:24.083Z,10.10
2022-10-03T00:10:53.032Z,10.10
2022-10-03T00:14:17.902Z,10.00
2022-10-03T00:17:45.452Z,10.00
2022-10-03T00:21:13.399Z,10.00
2022-10-03T00:24:41.147Z,9.90
2022-10-03T00:28:09.780Z,9.80
2022-10-03T00:31:39.312Z,9.70
2022-10-03T00:35:05.459Z,9.70
2022-10-03T00:38:42.584Z,9.70
2022-10-03T00:42:25.151Z,9.60
2022-10-03T00:46:01.611Z,9.60
2022-10-03T00:49:37.183Z,9.60
2022-10-03T00:53:04.469Z,9.60
2022-10-03T00:56:32.553Z,9.60
2022-10-03T01:00:02.454Z,9.60
2022-10-03T01:03:31.660Z,9.60
2022-10-03T01:06:58.990Z,9.50
2022-10-03T01:10:22.835Z,9.50
2022-10-03T01:13:49.497Z,9.40
2022-10-03T01:17:14.128Z,9.30
2022-10-03T01:20:41.256Z,9.30
2022-10-03T01:24:13.795Z,9.30
2022-10-03T01:27:38.932Z,9.20
2022-10-03T01:31:05.414Z,9.20
2022-10-03T01:34:28.819Z,9.20
2022-10-03T01:37:53.829Z,9.30
2022-10-03T01:41:22.332Z,9.40
2022-10-03T01:44:50.092Z,9.50
2022-10-03T01:48:16.747Z,9.60
2022-10-03T01:51:43.169Z,9.70
2022-10-03T01:55:08.492Z,9.70
2022-10-03T01:58:39.630Z,9.70
2022-10-03T02:02:05.632Z,9.80
2022-10-03T02:05:38.272Z,9.80
2022-10-03T02:09:03.053Z,9.90
2022-10-03T02:12:27.158Z,9.80
2022-10-03T02:15:55.298Z,9.90
2022-10-03T02:19:21.167Z,9.90
2022-10-03T02:22:45.235Z,10.00
2022-10-03T02:26:26.283Z,10.00
2022-10-03T02:30:05.613Z,10.10
2022-10-03T02:33:42.122Z,10.20
2022-10-03T02:37:19.947Z,10.20
2022-10-03T02:40:56.101Z,10.20
2022-10-03T02:44:30.809Z,10.20
2022-10-03T02:48:30.202Z,10.30
2022-10-03T02:52:03.907Z,10.30
2022-10-03T02:55:50.752Z,10.30
2022-10-03T02:59:33.422Z,10.30
2022-10-03T03:03:03.411Z,10.40
2022-10-03T03:06:46.007Z,10.40
2022-10-03T03:10:22.236Z,10.40
2022-10-03T03:14:10.699Z,10.50
2022-10-03T03:17:37.226Z,10.50
2022-10-03T03:21:05.423Z,10.50
2022-10-03T03:24:35.451Z,10.50
2022-10-03T03:28:03.150Z,10.50
2022-10-03T03:31:28.579Z,10.40
2022-10-03T03:34:56.006Z,10.30
2022-10-03T03:38:22.327Z,10.20
2022-10-03T03:41:49.410Z,10.00
2022-10-03T03:45:21.061Z,9.90
2022-10-03T03:48:59.541Z,9.70
2022-10-03T03:52:29.456Z,9.60
2022-10-03T03:56:01.860Z,9.50
2022-10-03T03:59:33.500Z,9.40
2022-10-03T04:03:02.697Z,9.40
2022-10-03T04:06:33.044Z,9.30
2022-10-03T04:10:14.389Z,9.20
2022-10-03T04:13:44.993Z,9.20
2022-10-03T04:17:11.879Z,9.10
2022-10-03T04:20:44.727Z,9.10
2022-10-03T04:24:15.748Z,9.10
2022-10-03T04:27:49.143Z,9.00
2022-10-03T04:31:18.637Z,9.00
2022-10-03T04:34:49.066Z,9.00
2022-10-03T04:38:13.247Z,9.10
2022-10-03T04:41:42.895Z,9.20
2022-10-03T04:45:13.165Z,9.30
2022-10-03T04:48:37.710Z,9.40
2022-10-03T04:52:02.237Z,9.40
2022-10-03T04:55:28.044Z,9.40
2022-10-03T04:58:54.075Z,9.40
2022-10-03T05:02:25.287Z,9.30
2022-10-03T05:05:51.274Z,9.20
2022-10-03T05:09:21.679Z,9.20
2022-10-03T05:12:47.353Z,9.20
2022-10-03T05:16:15.248Z,9.30
2022-10-03T05:19:46.318Z,9.40
2022-10-03T05:23:15.347Z,9.50
2022-10-03T05:26:45.208Z,9.60
2022-10-03T05:30:09.202Z,9.70
2022-10-03T05:33:37.550Z,9.70
2022-10-03T05:37:14.219Z,9.80
2022-10-03T05:40:37.421Z,9.80
2022-10-03T05:44:04.200Z,9.80
2022-10-03T05:47:28.308Z,9.90
2022-10-03T05:51:00.197Z,9.90
2022-10-03T05:54:50.823Z,10.00
2022-10-03T05:58:26.899Z,10.00
2022-10-03T06:02:00.465Z,10.10
2022-10-03T06:05:29.727Z,10.20
2022-10-03T06:08:54.683Z,10.20
2022-10-03T06:12:19.648Z,10.20
2022-10-03T06:15:54.617Z,10.20
2022-10-03T06:19:24.714Z,10.30
2022-10-03T06:22:57.548Z,10.40
2022-10-03T06:26:36.284Z,10.40
2022-10-03T06:30:10.977Z,10.40
2022-10-03T06:33:50.526Z,10.50
2022-10-03T06:37:32.291Z,10.60
2022-10-03T06:41:12.682Z,10.90
2022-10-03T06:44:46.200Z,10.90
2022-10-03T06:48:15.875Z,11.10
2022-10-03T06:51:49.646Z,11.10
2022-10-03T06:55:26.319Z,11.10
2022-10-03T06:59:01.764Z,11.10
2022-10-03T07:02:37.429Z,11.10
2022-10-03T07:06:08.855Z,11.10
2022-10-03T07:09:57.165Z,11.10
2022-10-03T07:13:30.332Z,11.20
2022-10-03T07:16:59.346Z,11.20
2022-10-03T07:20:30.128Z,11.30
2022-10-03T07:24:02.158Z,11.60
2022-10-03T07:27:28.739Z,11.70
2022-10-03T07:30:57.391Z,11.90
2022-10-03T07:34:32.852Z,11.90
2022-10-03T07:38:10.959Z,11.90
2022-10-03T07:41:42.472Z,11.80
2022-10-03T07:45:22.244Z,11.80
2022-10-03T07:48:56.693Z,11.90
2022-10-03T07:52:30.025Z,12.00
2022-10-03T07:56:09.915Z,12.00
2022-10-03T07:59:42.767Z,12.10
2022-10-03T08:03:25.243Z,12.20
2022-10-03T08:06:50.111Z,12.30
2022-10-03T08:10:17.141Z,12.40
2022-10-03T08:13:46.325Z,12.40
2022-10-03T08:17:28.800Z,12.40
2022-10-03T08:20:55.827Z,12.30
2022-10-03T08:24:24.117Z,12.40
2022-10-03T08:27:54.522Z,12.50
2022-10-03T08:31:24.792Z,12.50
2022-10-03T08:35:00.346Z,12.50
2022-10-03T08:38:38.098Z,12.40
2022-10-03T08:42:29.946Z,12.50
2022-10-03T08:45:58.657Z,12.50
2022-10-03T08:49:44.043Z,12.70
2022-10-03T08:53:22.717Z,12.70
2022-10-03T08:56:56.277Z,13.00
2022-10-03T09:00:19.938Z,13.20
2022-10-03T09:03:59.119Z,13.70
2022-10-03T09:07:28.263Z,14.00
2022-10-03T09:11:03.583Z,14.10
2022-10-03T09:14:46.507Z,14.30
2022-10-03T09:18:19.511Z,14.70
2022-10-03T09:21:55.651Z,15.00
2022-10-03T09:25:22.910Z,15.90
2022-10-03T09:28:52.704Z,17.70
2022-10-03T09:32:31.075Z,18.60
2022-10-03T09:36:07.424Z,19.40
2022-10-03T09:39:47.589Z,18.80
2022-10-03T09:43:28.178Z,18.00
2022-10-03T09:47:13.520Z,18.20
2022-10-03T09:50:55.991Z,18.30
2022-10-03T09:54:25.100Z,18.20
2022-10-03T09:58:01.769Z,17.40
2022-10-03T10:01:29.485Z,18.00
2022-10-03T10:04:59.142Z,19.00
2022-10-03T10:08:37.760Z,20.00
2022-10-03T10:12:18.967Z,19.70
2022-10-03T10:15:54.889Z,20.10
2022-10-03T10:19:29.055Z,20.60
2022-10-03T10:23:04.808Z,20.40
2022-10-03T10:26:52.729Z,19.80
2022-10-03T10:30:21.046Z,18.90
2022-10-03T10:34:06.328Z,18.30
2022-10-03T10:37:46.569Z,17.40
2022-10-03T10:41:35.389Z,17.10
2022-10-03T10:45:13.887Z,16.70
2022-10-03T10:48:54.047Z,16.60
2022-10-03T10:52:47.223Z,16.70
2022-10-03T10:56:27.283Z,17.20
2022-10-03T11:00:10.743Z,17.40
2022-10-03T11:03:51.049Z,17.10
2022-10-03T11:07:28.225Z,16.70
2022-10-03T11:11:01.907Z,16.40
2022-10-03T11:14:45.452Z,16.00
2022-10-03T11:18:26.071Z,15.70
2022-10-03T11:22:14.605Z,15.40
2022-10-03T11:25:54.338Z,15.20
2022-10-03T11:29:33.815Z,14.90
2022-10-03T11:33:20.538Z,14.80
2022-10-03T11:36:57.372Z,14.80
2022-10-03T11:40:29.221Z,14.90
2022-10-03T11:44:05.944Z,15.20
2022-10-03T11:47:34.640Z,15.30
2022-10-03T11:51:00.053Z,15.30
2022-10-03T11:54:32.153Z,15.20
2022-10-03T11:57:59.888Z,15.30
2022-10-03T12:01:24.629Z,15.40
2022-10-03T12:04:52.208Z,15.40
2022-10-03T12:08:20.796Z,15.60
2022-10-03T12:11:45.523Z,15.70
2022-10-03T12:15:23.205Z,15.70
2022-10-03T12:18:50.815Z,15.60
2022-10-03T12:22:18.608Z,15.40
2022-10-03T12:25:43.343Z,15.30
2022-10-03T12:29:09.215Z,15.20
2022-10-03T12:32:37.104Z,15.20
2022-10-03T12:36:03.168Z,15.30
2022-10-03T12:39:32.250Z,15.50
2022-10-03T12:43:01.951Z,15.80
2022-10-03T12:46:29.660Z,15.90
2022-10-03T12:49:53.650Z,16.00
2022-10-03T12:53:21.079Z,16.20
2022-10-03T12:56:45.235Z,16.30
2022-10-03T13:00:13.878Z,16.10
2022-10-03T13:03:39.107Z,16.10
2022-10-03T13:07:08.112Z,16.00
2022-10-03T13:10:33.685Z,15.80
2022-10-03T13:14:14.626Z,15.60
2022-10-03T13:17:40.318Z,15.30
2022-10-03T13:21:13.052Z,15.00
2022-10-03T13:24:47.269Z,14.80
2022-10-03T13:28:13.030Z,14.70
2022-10-03T13:31:39.790Z,14.60
2022-10-03T13:35:14.397Z,14.50
2022-10-03T13:38:56.889Z,14.50
2022-10-03T13:42:20.371Z,14.60
2022-10-03T13:45:46.068Z,14.90
2022-10-03T13:49:15.005Z,15.00
2022-10-03T13:52:41.849Z,15.20
2022-10-03T13:56:07.223Z,15.20
2022-10-03T13:59:36.421Z,15.10
2022-10-03T14:03:03.912Z,15.10
2022-10-03T14:06:32.820Z,15.00
2022-10-03T14:10:07.717Z,15.00
2022-10-03T14:13:32.020Z,15.10
2022-10-03T14:16:56.711Z,15.30
2022-10-03T14:20:23.982Z,15.30
2022-10-03T14:23:51.423Z,15.30
2022-10-03T14:27:22.976Z,15.30
2022-10-03T14:31:05.609Z,15.30
2022-10-03T14:34:35.866Z,15.30
2022-10-03T14:38:01.913Z,15.40
2022-10-03T14:41:27.598Z,15.40
2022-10-03T14:44:54.040Z,15.50
2022-10-03T14:48:17.390Z,15.70
2022-10-03T14:51:40.681Z,15.90
2022-10-03T14:55:07.923Z,15.90
2022-10-03T14:58:32.008Z,15.80
2022-10-03T15:01:57.514Z,15.70
2022-10-03T15:05:22.144Z,15.80
2022-10-03T15:08:45.406Z,15.90
2022-10-03T15:12:10.643Z,16.00
2022-10-03T15:15:34.715Z,16.10
2022-10-03T15:19:01.812Z,16.10
2022-10-03T15:22:31.689Z,16.20
2022-10-03T15:25:54.106Z,16.30
2022-10-03T15:29:17.807Z,16.30
2022-10-03T15:32:41.334Z,16.40
2022-10-03T15:36:08.895Z,16.40
2022-10-03T15:39:32.939Z,16.40
2022-10-03T15:43:01.458Z,16.20
2022-10-03T15:46:29.821Z,16.00
2022-10-03T15:49:53.667Z,15.90
2022-10-03T15:53:35.461Z,15.70
2022-10-03T15:56:58.892Z,15.60
2022-10-03T16:00:26.197Z,15.50
2022-10-03T16:03:49.644Z,15.40
2022-10-03T16:07:12.002Z,15.30
2022-10-03T16:10:36.577Z,15.10
2022-10-03T16:14:07.025Z,14.90
2022-10-03T16:17:31.698Z,14.70
2022-10-03T16:20:55.324Z,14.60
2022-10-03T16:24:21.074Z,14.50
2022-10-03T16:27:46.726Z,14.40
2022-10-03T16:31:12.913Z,14.30
2022-10-03T16:34:35.126Z,14.20
2022-10-03T16:37:57.388Z,14.10
2022-10-03T16:41:20.798Z,14.00
2022-10-03T16:44:48.976Z,13.80
2022-10-03T16:48:13.514Z,13.60
2022-10-03T16:51:37.903Z,13.50
2022-10-03T16:55:01.982Z,13.40
2022-10-03T16:58:26.040Z,13.20
2022-10-03T17:01:50.740Z,13.10
2022-10-03T17:05:13.902Z,13.00
2022-10-03T17:08:48.671Z,12.80
2022-10-03T17:12:15.453Z,12.70
2022-10-03T17:15:44.490Z,12.50
2022-10-03T17:19:13.622Z,12.40
2022-10-03T17:22:37.777Z,12.20
2022-10-03T17:26:05.434Z,12.10
2022-10-03T17:29:30.645Z,12.00
2022-10-03T17:32:54.983Z,11.90
2022-10-03T17:36:31.958Z,11.70
2022-10-03T17:39:54.626Z,11.60
2022-10-03T17:43:18.657Z,11.40
2022-10-03T17:46:41.000Z,11.30
2022-10-03T17:50:06.163Z,11.10
2022-10-03T17:53:31.313Z,11.10
2022-10-03T17:56:56.755Z,11.00
2022-10-03T18:00:21.684Z,10.90
2022-10-03T18:03:48.774Z,10.80
2022-10-03T18:07:12.614Z,10.70
2022-10-03T18:10:36.781Z,10.60
2022-10-03T18:14:01.947Z,10.60
2022-10-03T18:17:27.075Z,10.50
2022-10-03T18:20:50.409Z,10.40
2022-10-03T18:24:15.588Z,10.30
2022-10-03T18:27:51.514Z,10.30
2022-10-03T18:31:16.535Z,10.30
2022-10-03T18:34:42.894Z,10.20
2022-10-03T18:38:07.387Z,10.10
2022-10-03T18:41:29.061Z,10.00
2022-10-03T18:44:52.072Z,10.00
2022-10-03T18:48:17.611Z,9.80
2022-10-03T18:51:41.848Z,9.80
2022-10-03T18:55:07.547Z,9.70
2022-10-03T18:58:33.098Z,9.70
2022-10-03T19:01:57.621Z,9.60
2022-10-03T19:05:20.638Z,9.50
2022-10-03T19:08:46.556Z,9.50
2022-10-03T19:12:11.455Z,9.40
2022-10-03T19:15:39.032Z,9.40
2022-10-03T19:19:06.953Z,9.30
2022-10-03T19:22:30.622Z,9.20
2022-10-03T19:25:53.633Z,9.20
2022-10-03T19:29:18.082Z,9.10
2022-10-03T19:32:47.264Z,9.00
2022-10-03T19:36:14.321Z,9.00
2022-10-03T19:39:38.163Z,8.90
2022-10-03T19:43:17.044Z,8.90
2022-10-03T19:46:48.272Z,8.80
2022-10-03T19:50:13.359Z,8.70
2022-10-03T19:53:41.830Z,8.70
2022-10-03T19:57:04.401Z,8.70
2022-10-03T20:00:28.094Z,8.70
2022-10-03T20:03:52.321Z,8.70
2022-10-03T20:07:18.747Z,8.70
2022-10-03T20:10:49.604Z,8.70
2022-10-03T20:14:15.136Z,8.60
2022-10-03T20:17:36.838Z,8.60
2022-10-03T20:20:59.677Z,8.50
2022-10-03T20:24:26.476Z,8.50
2022-10-03T20:27:51.170Z,8.40
2022-10-03T20:31:22.480Z,8.30
2022-10-03T20:34:48.369Z,8.30
2022-10-03T20:38:16.237Z,8.30
2022-10-03T20:41:44.282Z,8.20
2022-10-03T20:45:14.222Z,8.20
2022-10-03T20:48:44.792Z,8.20
2022-10-03T20:52:11.377Z,8.20
2022-10-03T20:55:40.982Z,8.10
2022-10-03T20:59:09.739Z,8.10
2022-10-03T21:02:39.180Z,8.10
2022-10-03T21:06:03.821Z,8.00
2022-10-03T21:09:30.206Z,8.00
2022-10-03T21:12:54.952Z,8.00
2022-10-03T21:16:20.577Z,7.90
2022-10-03T21:19:46.013Z,7.80
2022-10-03T21:30:48.278Z,7.80
2022-10-03T21:34:17.638Z,7.70
2022-10-03T21:37:44.129Z,7.70
2022-10-03T21:44:52.349Z,7.70
2022-10-03T21:48:20.785Z,7.60
2022-10-03T21:51:45.167Z,7.60
2022-10-03T21:55:16.702Z,7.60
2022-10-03T21:58:53.207Z,7.60
2022-10-03T22:02:17.408Z,7.60
2022-10-03T22:05:43.008Z,7.60
2022-10-03T22:09:11.170Z,7.50
2022-10-03T22:12:43.394Z,7.50
2022-10-03T22:16:07.375Z,7.40
2022-10-03T22:19:35.423Z,7.40
2022-10-03T22:23:02.953Z,7.40
2022-10-03T22:26:28.322Z,7.30
2022-10-03T22:29:55.517Z,7.30
2022-10-03T22:33:21.583Z,7.30
2022-10-03T22:36:43.486Z,7.20
2022-10-03T22:40:05.739Z,7.20
2022-10-03T22:43:28.229Z,7.20
2022-10-03T22:46:53.894Z,7.20
2022-10-03T22:50:18.813Z,7.10
2022-10-03T22:53:43.950Z,7.10
2022-10-03T22:57:06.499Z,7.00
2022-10-03T23:00:29.976Z,6.90
2022-10-03T23:03:53.026Z,6.90
2022-10-03T23:07:25.721Z,6.90
2022-10-03T23:10:50.165Z,6.90
2022-10-03T23:14:17.392Z,6.90
2022-10-03T23:17:46.449Z,6.80
2022-10-03T23:21:10.376Z,6.80
2022-10-03T23:24:34.362Z,6.80
2022-10-03T23:28:03.230Z,6.70
2022-10-03T23:31:44.059Z,6.70
2022-10-03T23:35:13.556Z,6.70
2022-10-03T23:42:42.319Z,6.60
2022-10-03T23:46:05.537Z,6.70
2022-10-03T23:49:27.596Z,6.60
2022-10-03T23:52:52.584Z,6.70
